Aviation Digital Data Service (ADDS)

Output produced by METARs form (0431 UTC 22 September 2017)
found at http://www.aviationweather.gov/adds/metars/
 
VYMD 220330Z 17005KT 7000 SCT020 FEW025CB 33/26 Q1008
TAF VYMD 212300Z 2200/2224 18006KT 7000 BKN018 FEW020CB 
     TEMPO 2200/ 2206 21006G17KT 5000 -TSRA BKN015 FEW018CB OVC080
       
VYYY 220400Z 26005KT 7000 R21/2000 BKN015 FEW020CB SCT100 32/25 Q1008
TAF VYYY 212300Z 2200/2224 25005KT 7000 BKN015 FEW018CB BKN100 
     TEMPO 2200/2206 21005G15KT 4000 -TSRA